Time;durP1;ratioP1;P1;durP2;ratioP2;P2;SDS_P1;SDS_P2;PMS_P1;PMS_P2;Temp;Humidity;BMP_temperature;BMP_pressure;BME280_temperature;BME280_humidity;BME280_pressure;Samples;Min_cycle;Max_cycle;Signal;HPM_P1;HPM_P2
2022/08/11 00:00:21;;;;;;;;;;;;;;;;;;5062163;28;19920;-55
2022/08/11 00:02:46;;;;;;;;;;;;;;;;;;5054770;28;20458;-54
2022/08/11 00:05:11;;;;;;;;;;;;;;;;;;5060453;28;19932;-55
2022/08/11 00:07:36;;;;;;;;;;;;;;;;;;5062995;28;19919;-57
2022/08/11 00:10:01;;;;;;;;;;;;;;;;;;5057431;28;19916;-54
2022/08/11 00:12:27;;;;;;;;;;;;;;;;;;5058308;28;20007;-54
2022/08/11 00:14:52;;;;;;;;;;;;;;;;;;5060367;28;19921;-55
2022/08/11 00:17:17;;;;;;;;;;;;;;;;;;5054345;28;19916;-56
2022/08/11 00:19:42;;;;;;;;;;;;;;;;;;5057124;28;20015;-56
2022/08/11 00:22:08;;;;;;;;;;;;;;;;;;5045059;28;19931;-55
2022/08/11 00:24:33;;;;;;;;;;;;;;;;;;5043203;28;20422;-52
2022/08/11 00:26:58;;;;;;;;;;;;;;;;;;5061327;28;20381;-51
2022/08/11 00:29:23;;;;;;;;;;;;;;;;;;5061522;28;19916;-55
2022/08/11 00:31:49;;;;;;;;;;;;;;;;;;5055435;28;19916;-55
2022/08/11 00:34:14;;;;;;;;;;;;;;;;;;5062109;28;19974;-52
2022/08/11 00:36:40;;;;;;;;;;;;;;;;;;5061050;28;19923;-56
2022/08/11 00:39:05;;;;;;;;;;;;;;;;;;5051233;28;20879;-57
2022/08/11 00:41:30;;;;;;;;;;;;;;;;;;5057783;28;19923;-54
2022/08/11 00:43:55;;;;;;;;;;;;;;;;;;5057979;28;19927;-54
2022/08/11 00:46:21;;;;;;;;;;;;;;;;;;5059100;28;19921;-56
2022/08/11 00:48:46;;;;;;;;;;;;;;;;;;5061223;28;20023;-56
2022/08/11 00:51:11;;;;;;;;;;;;;;;;;;5056693;28;20015;-55
2022/08/11 00:53:36;;;;;;;;;;;;;;;;;;5053949;28;19923;-52
2022/08/11 00:56:02;;;;;;;;;;;;;;;;;;5058275;28;19921;-53
2022/08/11 00:58:27;;;;;;;;;;;;;;;;;;5060972;28;19921;-57
2022/08/11 01:00:52;;;;;;;;;;;;;;;;;;5052799;28;19992;-53
2022/08/11 01:03:17;;;;;;;;;;;;;;;;;;5057473;28;19924;-54
2022/08/11 01:05:43;;;;;;;;;;;;;;;;;;5057895;28;20386;-55
2022/08/11 01:08:08;;;;;;;;;;;;;;;;;;5059732;28;20615;-55
2022/08/11 01:10:33;;;;;;;;;;;;;;;;;;5044668;28;20519;-56
2022/08/11 01:12:58;;;;;;;;;;;;;;;;;;5057445;28;19916;-54
2022/08/11 01:15:24;;;;;;;;;;;;;;;;;;5057294;28;20373;-55
2022/08/11 01:17:49;;;;;;;;;;;;;;;;;;5056287;28;20288;-56
2022/08/11 01:20:14;;;;;;;;;;;;;;;;;;5052442;28;20292;-52
2022/08/11 01:22:39;;;;;;;;;;;;;;;;;;5055173;28;20376;-54
2022/08/11 01:25:04;;;;;;;;;;;;;;;;;;5053732;28;19916;-56
2022/08/11 01:27:30;;;;;;;;;;;;;;;;;;5056962;28;20302;-56
2022/08/11 01:29:55;;;;;;;;;;;;;;;;;;5058707;28;20308;-55
2022/08/11 01:32:20;;;;;;;;;;;;;;;;;;5056801;28;19924;-53
2022/08/11 01:34:47;;;;;;;;;;;;;;;;;;5053984;28;19917;-54
2022/08/11 01:37:12;;;;;;;;;;;;;;;;;;5062471;28;20023;-53
2022/08/11 01:39:37;;;;;;;;;;;;;;;;;;5061852;28;20479;-52
2022/08/11 01:44:47;;;;;;;;;;;;;;;;;;5054257;28;19986;-54
2022/08/11 01:47:49;;;;;;;;;;;;;;;;;;5054253;28;21686;-51
2022/08/11 01:49:57;;;;;;;;;;;;;;;;;;5051443;28;19917;-54
2022/08/11 01:52:22;;;;;;;;;;;;;;;;;;5062008;28;19931;-56
2022/08/11 01:54:48;;;;;;;;;;;;;;;;;;5055958;28;19917;-51
2022/08/11 01:57:13;;;;;;;;;;;;;;;;;;5048612;28;19921;-55
2022/08/11 01:59:38;;;;;;;;;;;;;;;;;;5051180;28;20569;-52
2022/08/11 02:02:03;;;;;;;;;;;;;;;;;;5052673;28;19947;-55
2022/08/11 02:04:28;;;;;;;;;;;;;;;;;;5038830;28;19962;-55
2022/08/11 02:06:53;;;;;;;;;;;;;;;;;;5061181;28;19920;-56
2022/08/11 02:09:19;;;;;;;;;;;;;;;;;;5054778;28;20305;-55
2022/08/11 02:11:44;;;;;;;;;;;;;;;;;;5052127;28;20576;-56
2022/08/11 02:14:09;;;;;;;;;;;;;;;;;;5053955;28;20270;-52
2022/08/11 02:16:34;;;;;;;;;;;;;;;;;;5058277;28;19916;-53
2022/08/11 02:24:47;;;;;;;;;;;;;;;;;;4998429;28;19940;-52
2022/08/11 02:27:12;;;;;;;;;;;;;;;;;;4999522;28;19921;-55
2022/08/11 02:29:38;;;;;;;;;;;;;;;;;;5027646;28;19920;-52
2022/08/11 02:34:52;;;;;;;;;;;;;;;;;;5039059;28;19963;-52
2022/08/11 02:37:18;;;;;;;;;;;;;;;;;;5054170;28;19966;-49
2022/08/11 02:39:43;;;;;;;;;;;;;;;;;;5053846;28;19916;-53
2022/08/11 02:42:24;;;;;;;;;;;;;;;;;;5058289;28;19977;-50
2022/08/11 02:44:49;;;;;;;;;;;;;;;;;;5052510;28;19921;-52
2022/08/11 02:47:14;;;;;;;;;;;;;;;;;;5059007;28;19939;-53
2022/08/11 02:49:54;;;;;;;;;;;;;;;;;;5058200;28;19985;-52
2022/08/11 02:52:20;;;;;;;;;;;;;;;;;;5057309;28;20014;-55
2022/08/11 02:54:45;;;;;;;;;;;;;;;;;;5053516;28;19921;-56
2022/08/11 02:57:10;;;;;;;;;;;;;;;;;;5059088;28;19970;-54
2022/08/11 02:59:50;;;;;;;;;;;;;;;;;;5055402;28;20555;-54
2022/08/11 03:02:16;;;;;;;;;;;;;;;;;;5055208;28;19927;-52
2022/08/11 03:04:44;;;;;;;;;;;;;;;;;;5057844;28;19917;-54
2022/08/11 03:07:09;;;;;;;;;;;;;;;;;;5060053;28;19916;-56
2022/08/11 03:09:35;;;;;;;;;;;;;;;;;;5066600;28;19923;-53
2022/08/11 03:17:28;;;;;;;;;;;;;;;;;;5063367;28;19967;-54
2022/08/11 03:19:53;;;;;;;;;;;;;;;;;;5061140;28;20320;-51
2022/08/11 03:22:20;;;;;;;;;;;;;;;;;;5057704;28;20453;-56
2022/08/11 03:24:46;;;;;;;;;;;;;;;;;;5057221;28;19963;-54
2022/08/11 03:27:11;;;;;;;;;;;;;;;;;;5063050;28;20011;-56
2022/08/11 03:29:36;;;;;;;;;;;;;;;;;;5055297;28;19923;-54
2022/08/11 03:32:01;;;;;;;;;;;;;;;;;;5063764;28;19916;-53
2022/08/11 03:34:26;;;;;;;;;;;;;;;;;;5056739;28;19916;-55
2022/08/11 03:36:52;;;;;;;;;;;;;;;;;;5063865;28;20099;-53
2022/08/11 03:39:17;;;;;;;;;;;;;;;;;;5047596;28;19917;-51
2022/08/11 03:41:43;;;;;;;;;;;;;;;;;;5037168;28;19920;-55
2022/08/11 03:44:08;;;;;;;;;;;;;;;;;;5064598;28;19924;-52
2022/08/11 03:46:34;;;;;;;;;;;;;;;;;;5060308;28;19916;-52
2022/08/11 03:48:59;;;;;;;;;;;;;;;;;;5055786;28;20002;-56
2022/08/11 03:51:24;;;;;;;;;;;;;;;;;;5043602;28;20003;-56
2022/08/11 03:53:49;;;;;;;;;;;;;;;;;;5058658;28;19962;-52
2022/08/11 03:56:15;;;;;;;;;;;;;;;;;;5054471;28;19992;-53
2022/08/11 03:58:40;;;;;;;;;;;;;;;;;;5060042;28;20829;-54
2022/08/11 04:01:05;;;;;;;;;;;;;;;;;;5056922;28;19997;-51
2022/08/11 04:03:30;;;;;;;;;;;;;;;;;;5057479;28;19939;-53
2022/08/11 04:05:55;;;;;;;;;;;;;;;;;;5061742;28;19924;-53
2022/08/11 04:08:21;;;;;;;;;;;;;;;;;;5062851;28;19962;-51
2022/08/11 04:10:46;;;;;;;;;;;;;;;;;;5063443;28;19960;-52
2022/08/11 04:13:11;;;;;;;;;;;;;;;;;;5057835;28;20015;-54
2022/08/11 04:18:20;;;;;;;;;;;;;;;;;;5057003;28;20408;-55
2022/08/11 04:20:45;;;;;;;;;;;;;;;;;;5059498;28;19916;-54
2022/08/11 04:23:11;;;;;;;;;;;;;;;;;;5060884;28;19932;-54
2022/08/11 04:25:36;;;;;;;;;;;;;;;;;;5061365;28;20370;-53
2022/08/11 04:28:01;;;;;;;;;;;;;;;;;;5060342;28;20292;-54
2022/08/11 04:30:26;;;;;;;;;;;;;;;;;;5056595;28;19974;-50
2022/08/11 04:32:51;;;;;;;;;;;;;;;;;;5056410;28;20051;-54
2022/08/11 04:35:17;;;;;;;;;;;;;;;;;;5065331;28;20001;-51
2022/08/11 04:37:42;;;;;;;;;;;;;;;;;;5058619;28;20361;-50
2022/08/11 04:40:09;;;;;;;;;;;;;;;;;;5058679;28;19920;-53
2022/08/11 04:45:19;;;;;;;;;;;;;;;;;;5054640;28;19916;-52
2022/08/11 05:01:42;;;;;;;;;;;;;;;;;;5050699;28;19960;-54
2022/08/11 05:05:29;;;;;;;;;;;;;;;;;;5060495;28;20015;-54
2022/08/11 05:06:52;;;;;;;;;;;;;;;;;;5051601;28;20262;-55
2022/08/11 05:09:17;;;;;;;;;;;;;;;;;;5060443;28;20424;-50
2022/08/11 05:11:43;;;;;;;;;;;;;;;;;;5054790;28;20015;-55
2022/08/11 05:35:59;;;;;;;;;;;;;;;;;;5055026;28;19920;-53
2022/08/11 05:57:31;;;;;;;;;;;;;;;;;;5058379;28;19956;-57
2022/08/11 05:59:57;;;;;;;;;;;;;;;;;;5056411;28;20372;-55
2022/08/11 06:02:22;;;;;;;;;;;;;;;;;;5060673;28;19929;-54
2022/08/11 06:04:47;;;;;;;;;;;;;;;;;;5054275;28;19981;-56
2022/08/11 06:07:16;;;;;;;;;;;;;;;;;;5058967;28;20791;-52
2022/08/11 06:09:41;;;;;;;;;;;;;;;;;;5053656;28;19971;-54
2022/08/11 06:12:07;;;;;;;;;;;;;;;;;;5053924;28;19987;-54
2022/08/11 06:14:32;;;;;;;;;;;;;;;;;;5039504;28;20003;-54
2022/08/11 06:17:00;;;;;;;;;;;;;;;;;;5051335;28;19970;-54
2022/08/11 06:19:25;;;;;;;;;;;;;;;;;;5053541;28;20751;-54
2022/08/11 06:21:51;;;;;;;;;;;;;;;;;;5050429;28;19916;-55
2022/08/11 06:24:17;;;;;;;;;;;;;;;;;;5053327;28;19931;-56
2022/08/11 06:26:42;;;;;;;;;;;;;;;;;;5041023;28;19917;-57
2022/08/11 06:29:07;;;;;;;;;;;;;;;;;;5053562;28;19916;-56
2022/08/11 06:31:32;;;;;;;;;;;;;;;;;;5051445;28;20095;-54
2022/08/11 06:33:58;;;;;;;;;;;;;;;;;;5051662;28;19951;-56
2022/08/11 06:36:23;;;;;;;;;;;;;;;;;;5051490;28;20275;-55
2022/08/11 06:38:49;;;;;;;;;;;;;;;;;;5052155;28;19943;-56
2022/08/11 06:41:29;;;;;;;;;;;;;;;;;;5051658;28;19917;-54
2022/08/11 06:43:54;;;;;;;;;;;;;;;;;;5056107;28;20017;-55
2022/08/11 06:46:21;;;;;;;;;;;;;;;;;;5056248;28;19994;-53
2022/08/11 06:48:47;;;;;;;;;;;;;;;;;;5052084;28;19917;-55
2022/08/11 06:51:12;;;;;;;;;;;;;;;;;;5056472;28;19917;-56
2022/08/11 06:53:37;;;;;;;;;;;;;;;;;;5037390;28;20066;-53
2022/08/11 07:01:30;;;;;;;;;;;;;;;;;;5048397;28;20064;-57
2022/08/11 07:03:57;;;;;;;;;;;;;;;;;;5042451;28;20270;-55
2022/08/11 07:06:22;;;;;;;;;;;;;;;;;;5052800;28;20032;-54
2022/08/11 07:16:59;;;;;;;;;;;;;;;;;;5053862;28;20007;-56
2022/08/11 07:30:20;;;;;;;;;;;;;;;;;;5050740;28;19916;-57
2022/08/11 07:32:45;;;;;;;;;;;;;;;;;;5050947;28;20399;-58
2022/08/11 07:35:13;;;;;;;;;;;;;;;;;;5052213;28;19946;-56
2022/08/11 07:37:39;;;;;;;;;;;;;;;;;;5048987;28;19953;-54
2022/08/11 07:40:04;;;;;;;;;;;;;;;;;;5052963;28;19920;-54
2022/08/11 07:42:29;;;;;;;;;;;;;;;;;;5043250;28;19927;-55
2022/08/11 07:53:06;;;;;;;;;;;;;;;;;;5052082;28;19920;-58
2022/08/11 07:55:33;;;;;;;;;;;;;;;;;;5051337;28;20003;-56
2022/08/11 08:19:49;;;;;;;;;;;;;;;;;;5050646;28;19917;-58
2022/08/11 08:22:15;;;;;;;;;;;;;;;;;;5050985;28;19916;-58
2022/08/11 08:24:40;;;;;;;;;;;;;;;;;;5040766;28;19963;-58
2022/08/11 08:27:05;;;;;;;;;;;;;;;;;;5051371;28;20450;-56
2022/08/11 08:32:15;;;;;;;;;;;;;;;;;;5051200;28;19917;-55
2022/08/11 08:34:40;;;;;;;;;;;;;;;;;;5052395;28;19943;-55
2022/08/11 08:37:05;;;;;;;;;;;;;;;;;;5050607;28;19912;-54
2022/08/11 08:39:36;;;;;;;;;;;;;;;;;;5050629;28;20010;-56
2022/08/11 08:42:01;;;;;;;;;;;;;;;;;;5049825;28;19962;-53
2022/08/11 08:44:27;;;;;;;;;;;;;;;;;;5049284;28;19928;-53
2022/08/11 08:46:52;;;;;;;;;;;;;;;;;;5050693;28;20886;-56
2022/08/11 08:49:17;;;;;;;;;;;;;;;;;;5048631;28;19935;-61
2022/08/11 08:51:42;;;;;;;;;;;;;;;;;;5050697;28;19985;-57
2022/08/11 08:54:07;;;;;;;;;;;;;;;;;;5049497;28;19913;-56
2022/08/11 08:56:33;;;;;;;;;;;;;;;;;;5051111;28;20035;-57
2022/08/11 08:58:59;;;;;;;;;;;;;;;;;;5049778;28;19943;-56
2022/08/11 09:01:24;;;;;;;;;;;;;;;;;;5034885;28;19921;-54
2022/08/11 09:03:49;;;;;;;;;;;;;;;;;;5049875;28;19934;-55
2022/08/11 09:06:16;;;;;;;;;;;;;;;;;;5049976;28;19988;-57
2022/08/11 09:08:41;;;;;;;;;;;;;;;;;;5048725;28;20024;-57
2022/08/11 09:13:50;;;;;;;;;;;;;;;;;;5050524;28;19917;-58
2022/08/11 09:16:18;;;;;;;;;;;;;;;;;;5048572;28;20599;-57
2022/08/11 09:18:44;;;;;;;;;;;;;;;;;;5037923;28;20316;-54
2022/08/11 09:21:09;;;;;;;;;;;;;;;;;;5051430;28;19966;-57
2022/08/11 09:29:03;;;;;;;;;;;;;;;;;;5040856;28;20310;-56
2022/08/11 09:31:28;;;;;;;;;;;;;;;;;;5051763;28;19917;-58
2022/08/11 09:33:54;;;;;;;;;;;;;;;;;;5047321;28;19927;-57
2022/08/11 09:41:47;;;;;;;;;;;;;;;;;;5049177;28;19966;-57
2022/08/11 09:46:58;;;;;;;;;;;;;;;;;;5050255;28;19916;-56
2022/08/11 09:49:23;;;;;;;;;;;;;;;;;;5048943;28;19921;-56
2022/08/11 09:51:48;;;;;;;;;;;;;;;;;;5049326;28;19939;-55
2022/08/11 09:54:15;;;;;;;;;;;;;;;;;;5050023;28;20291;-57
2022/08/11 09:59:25;;;;;;;;;;;;;;;;;;5040541;28;20321;-55
2022/08/11 10:01:50;;;;;;;;;;;;;;;;;;5047821;28;20400;-55
2022/08/11 10:04:15;;;;;;;;;;;;;;;;;;5049749;28;19920;-56
2022/08/11 10:09:24;;;;;;;;;;;;;;;;;;5049240;28;19920;-54
2022/08/11 10:11:49;;;;;;;;;;;;;;;;;;5047326;28;19924;-58
2022/08/11 10:16:58;;;;;;;;;;;;;;;;;;5048999;28;19921;-57
2022/08/11 10:19:23;;;;;;;;;;;;;;;;;;5049149;28;20021;-57
2022/08/11 10:26:49;;;;;;;;;;;;;;;;;;5049892;28;20397;-56
2022/08/11 10:27:18;;;;;;;;;;;;;;;;;;5048799;28;19917;-56
2022/08/11 10:35:13;;;;;;;;;;;;;;;;;;5048277;28;19917;-56
2022/08/11 10:37:38;;;;;;;;;;;;;;;;;;5051398;28;20005;-56
2022/08/11 10:40:04;;;;;;;;;;;;;;;;;;5048712;28;20428;-57
2022/08/11 10:47:57;;;;;;;;;;;;;;;;;;5048933;28;20457;-56
2022/08/11 10:58:49;;;;;;;;;;;;;;;;;;5049576;28;19921;-55
2022/08/11 11:01:14;;;;;;;;;;;;;;;;;;5050000;28;20333;-54
2022/08/11 11:03:40;;;;;;;;;;;;;;;;;;5047568;28;19924;-55
2022/08/11 11:06:06;;;;;;;;;;;;;;;;;;5049113;28;19916;-56
2022/08/11 11:11:15;;;;;;;;;;;;;;;;;;5046885;28;19917;-57
2022/08/11 11:19:08;;;;;;;;;;;;;;;;;;5048635;28;20004;-56
2022/08/11 11:21:34;;;;;;;;;;;;;;;;;;5049139;28;19921;-57
2022/08/11 11:23:59;;;;;;;;;;;;;;;;;;5033714;28;19935;-54
2022/08/11 11:26:24;;;;;;;;;;;;;;;;;;5045726;28;19982;-54
2022/08/11 11:28:49;;;;;;;;;;;;;;;;;;5052314;28;19966;-57
2022/08/11 11:31:14;;;;;;;;;;;;;;;;;;5050917;28;19917;-54
2022/08/11 11:33:40;;;;;;;;;;;;;;;;;;5033677;28;19917;-57
2022/08/11 11:36:05;;;;;;;;;;;;;;;;;;5051649;28;19913;-57
2022/08/11 11:38:30;;;;;;;;;;;;;;;;;;5049742;28;19917;-58
2022/08/11 11:44:00;;;;;;;;;;;;;;;;;;5017588;28;19925;-57
2022/08/11 11:46:25;;;;;;;;;;;;;;;;;;5017288;28;19921;-58
2022/08/11 11:48:50;;;;;;;;;;;;;;;;;;5033616;28;19916;-58
2022/08/11 11:51:15;;;;;;;;;;;;;;;;;;5038659;28;19913;-58
2022/08/11 11:53:41;;;;;;;;;;;;;;;;;;5036826;28;20295;-58
2022/08/11 11:56:06;;;;;;;;;;;;;;;;;;5053206;28;19916;-59
2022/08/11 12:01:15;;;;;;;;;;;;;;;;;;5052523;28;19928;-57
2022/08/11 12:03:40;;;;;;;;;;;;;;;;;;5049520;28;19929;-58
2022/08/11 12:06:06;;;;;;;;;;;;;;;;;;5053578;28;19923;-58
2022/08/11 12:08:31;;;;;;;;;;;;;;;;;;5041339;28;19916;-59
2022/08/11 12:13:40;;;;;;;;;;;;;;;;;;5053891;28;19967;-59
2022/08/11 12:16:05;;;;;;;;;;;;;;;;;;5050164;28;20402;-59
2022/08/11 12:18:30;;;;;;;;;;;;;;;;;;5051222;28;20370;-59
2022/08/11 12:20:56;;;;;;;;;;;;;;;;;;5048894;28;19917;-59
2022/08/11 12:28:49;;;;;;;;;;;;;;;;;;5050182;28;20349;-59
2022/08/11 12:31:14;;;;;;;;;;;;;;;;;;5042895;28;20455;-58
2022/08/11 12:33:43;;;;;;;;;;;;;;;;;;5051811;28;19916;-59
2022/08/11 12:36:08;;;;;;;;;;;;;;;;;;5051214;28;20357;-58
2022/08/11 12:38:33;;;;;;;;;;;;;;;;;;5049915;28;19917;-58
2022/08/11 12:46:26;;;;;;;;;;;;;;;;;;5052348;28;19920;-58
2022/08/11 12:54:19;;;;;;;;;;;;;;;;;;5041171;28;19921;-59
2022/08/11 13:04:59;;;;;;;;;;;;;;;;;;5048656;28;19923;-59
2022/08/11 13:07:24;;;;;;;;;;;;;;;;;;5050919;28;20359;-59
2022/08/11 13:09:49;;;;;;;;;;;;;;;;;;5051699;28;20281;-58
2022/08/11 13:14:58;;;;;;;;;;;;;;;;;;5050653;28;19916;-59
2022/08/11 13:17:25;;;;;;;;;;;;;;;;;;5051742;28;19916;-59
2022/08/11 13:19:50;;;;;;;;;;;;;;;;;;5039082;28;20434;-59
2022/08/11 13:22:15;;;;;;;;;;;;;;;;;;5048969;28;19924;-58
2022/08/11 13:24:41;;;;;;;;;;;;;;;;;;5050968;28;19924;-59
2022/08/11 13:27:06;;;;;;;;;;;;;;;;;;5035307;28;19920;-59
2022/08/11 13:29:31;;;;;;;;;;;;;;;;;;5035231;28;20343;-59
2022/08/11 13:31:58;;;;;;;;;;;;;;;;;;5048201;28;20434;-59
2022/08/11 13:34:24;;;;;;;;;;;;;;;;;;5038073;28;19943;-60
2022/08/11 13:36:50;;;;;;;;;;;;;;;;;;5050480;28;20685;-59
2022/08/11 13:39:16;;;;;;;;;;;;;;;;;;5049583;28;19917;-59
2022/08/11 13:41:42;;;;;;;;;;;;;;;;;;5048126;28;20292;-59
2022/08/11 13:44:07;;;;;;;;;;;;;;;;;;5049903;28;20599;-59
2022/08/11 13:46:33;;;;;;;;;;;;;;;;;;5041053;28;19951;-59
2022/08/11 13:48:58;;;;;;;;;;;;;;;;;;5048358;28;19917;-59
2022/08/11 13:51:29;;;;;;;;;;;;;;;;;;5049320;28;19927;-58
2022/08/11 13:53:55;;;;;;;;;;;;;;;;;;5048639;28;19963;-59
2022/08/11 13:56:20;;;;;;;;;;;;;;;;;;5052547;28;19975;-57
2022/08/11 13:58:46;;;;;;;;;;;;;;;;;;5051285;28;19924;-58
2022/08/11 14:01:11;;;;;;;;;;;;;;;;;;5050578;28;19916;-58
2022/08/11 14:03:36;;;;;;;;;;;;;;;;;;5048113;28;19931;-58
2022/08/11 14:06:01;;;;;;;;;;;;;;;;;;5051434;28;19916;-57
2022/08/11 14:08:27;;;;;;;;;;;;;;;;;;5039933;28;19946;-58
2022/08/11 14:13:36;;;;;;;;;;;;;;;;;;5051140;28;20407;-58
2022/08/11 14:13:37;;;;;;;;;;;;;;;;;;5050584;28;19943;-58
2022/08/11 14:16:03;;;;;;;;;;;;;;;;;;5049766;28;20022;-59
2022/08/11 14:18:28;;;;;;;;;;;;;;;;;;5052293;28;19917;-58
2022/08/11 14:23:38;;;;;;;;;;;;;;;;;;5050094;28;19925;-58
2022/08/11 14:28:47;;;;;;;;;;;;;;;;;;5052004;28;20578;-58
2022/08/11 14:31:12;;;;;;;;;;;;;;;;;;5050393;28;19963;-58
2022/08/11 14:33:37;;;;;;;;;;;;;;;;;;5052766;28;19916;-57
2022/08/11 14:36:04;;;;;;;;;;;;;;;;;;5052043;28;19952;-58
2022/08/11 14:38:30;;;;;;;;;;;;;;;;;;5051728;28;19924;-58
2022/08/11 14:49:06;;;;;;;;;;;;;;;;;;5049872;28;19916;-58
2022/08/11 14:51:31;;;;;;;;;;;;;;;;;;5051987;28;19936;-57
2022/08/11 14:56:34;;;;;;;;;;;;;;;;;;5051216;28;19917;-58
2022/08/11 14:56:43;;;;;;;;;;;;;;;;;;5052748;28;20025;-58
2022/08/11 14:59:09;;;;;;;;;;;;;;;;;;5052543;28;19917;-58
2022/08/11 15:04:19;;;;;;;;;;;;;;;;;;5052337;28;19997;-57
2022/08/11 15:06:44;;;;;;;;;;;;;;;;;;5054653;28;19925;-58
2022/08/11 15:09:09;;;;;;;;;;;;;;;;;;5053304;28;20018;-58
2022/08/11 15:17:06;;;;;;;;;;;;;;;;;;5044395;28;19956;-58
2022/08/11 15:17:06;;;;;;;;;;;;;;;;;;5053646;28;19924;-58
2022/08/11 15:19:32;;;;;;;;;;;;;;;;;;5051010;28;19920;-58
2022/08/11 15:24:41;;;;;;;;;;;;;;;;;;5039723;28;20031;-58
2022/08/11 15:38:02;;;;;;;;;;;;;;;;;;5052507;28;20377;-58
2022/08/11 15:46:00;;;;;;;;;;;;;;;;;;5040960;28;20441;-58
2022/08/11 15:48:25;;;;;;;;;;;;;;;;;;5051484;28;20021;-57
2022/08/11 15:50:50;;;;;;;;;;;;;;;;;;5050674;28;20385;-58
2022/08/11 15:53:15;;;;;;;;;;;;;;;;;;5052059;28;20654;-58
2022/08/11 15:55:42;;;;;;;;;;;;;;;;;;5052077;28;20446;-58
2022/08/11 16:06:19;;;;;;;;;;;;;;;;;;5052343;28;19968;-58
2022/08/11 16:08:44;;;;;;;;;;;;;;;;;;5052101;28;19917;-57
2022/08/11 16:11:09;;;;;;;;;;;;;;;;;;5054289;28;19917;-57
2022/08/11 16:16:16;;;;;;;;;;;;;;;;;;5040144;28;20247;-57
2022/08/11 16:18:41;;;;;;;;;;;;;;;;;;5052230;28;19962;-59
2022/08/11 16:21:06;;;;;;;;;;;;;;;;;;5053149;28;19916;-58
2022/08/11 16:23:31;;;;;;;;;;;;;;;;;;5051833;28;19920;-58
2022/08/11 16:25:57;;;;;;;;;;;;;;;;;;5052402;28;19948;-60
2022/08/11 16:28:22;;;;;;;;;;;;;;;;;;5056573;28;19920;-58
2022/08/11 16:30:47;;;;;;;;;;;;;;;;;;5051567;28;19921;-58
2022/08/11 16:33:12;;;;;;;;;;;;;;;;;;5052365;28;19916;-58
2022/08/11 16:38:38;;;;;;;;;;;;;;;;;;5048670;28;20034;-59
2022/08/11 16:41:04;;;;;;;;;;;;;;;;;;5050823;28;20299;-58
2022/08/11 16:48:57;;;;;;;;;;;;;;;;;;5048370;28;19925;-58
2022/08/11 16:51:22;;;;;;;;;;;;;;;;;;5049842;28;20258;-57
2022/08/11 16:53:48;;;;;;;;;;;;;;;;;;5034281;28;19920;-58
2022/08/11 16:56:15;;;;;;;;;;;;;;;;;;5049784;28;20651;-57
2022/08/11 17:01:24;;;;;;;;;;;;;;;;;;5056979;28;20420;-57
2022/08/11 17:14:45;;;;;;;;;;;;;;;;;;5051971;28;19916;-58
2022/08/11 17:17:11;;;;;;;;;;;;;;;;;;5036239;28;19923;-58
2022/08/11 17:19:37;;;;;;;;;;;;;;;;;;5050138;28;19927;-59
2022/08/11 17:24:46;;;;;;;;;;;;;;;;;;5049707;28;19928;-57
2022/08/11 17:27:15;;;;;;;;;;;;;;;;;;5052042;28;20168;-58
2022/08/11 17:29:40;;;;;;;;;;;;;;;;;;5053112;28;19922;-58
2022/08/11 17:37:33;;;;;;;;;;;;;;;;;;5051778;28;19928;-58
2022/08/11 17:39:58;;;;;;;;;;;;;;;;;;5051813;28;19935;-58
2022/08/11 17:50:35;;;;;;;;;;;;;;;;;;5051680;28;20754;-56
2022/08/11 18:01:12;;;;;;;;;;;;;;;;;;5049356;28;20091;-57
2022/08/11 18:03:41;;;;;;;;;;;;;;;;;;5052336;28;19936;-57
2022/08/11 18:06:06;;;;;;;;;;;;;;;;;;5050659;28;19924;-57
